WetterOnline ( https://www.wetteronline.de )

Wetter aktuell Thierstein

Aktuelles Wetter: Cheb (490m)

6-stündlich | Neueste Meldungen
Ortszeit Temperatur Wetter
Sa, 19.09. 2:00 7.4° C -
Fr, 18.09. 20:00 13.7° C fast wolkenlos
Fr, 18.09. 14:00 18.1° C fast wolkenlos
Fr, 18.09. 8:00 6.5° C fast wolkenlos
Fr, 18.09. 2:00 7.9° C -
Do, 17.09. 20:00 12.7° C wolkenlos
Do, 17.09. 14:00 18.3° C fast wolkenlos
Do, 17.09. 8:00 14.7° C bedeckt
Ortszeit Temperatur Wetter
Sa, 19.09. 7:00 6.1° C wolkenlos
Sa, 19.09. 6:00 7.3° C wolkenlos
Sa, 19.09. 5:00 6.2° C wolkenlos
Sa, 19.09. 4:00 6.7° C wolkenlos
Sa, 19.09. 3:00 6.8° C -
Sa, 19.09. 2:00 7.4° C -
Ortszeit Relative Feuchte Sichtweite
Sa, 19.09. 2:00 70% 35 km
Fr, 18.09. 20:00 48% 40 km
Fr, 18.09. 14:00 38% 50 km
Fr, 18.09. 8:00 87% 40 km
Fr, 18.09. 2:00 80% 35 km
Do, 17.09. 20:00 64% 35 km
Do, 17.09. 14:00 50% 50 km
Do, 17.09. 8:00 80% 35 km
Ortszeit Relative Feuchte Sichtweite
Sa, 19.09. 7:00 79% 35 km
Sa, 19.09. 6:00 71% 35 km
Sa, 19.09. 5:00 78% 35 km
Sa, 19.09. 4:00 74% 35 km
Sa, 19.09. 3:00 73% 35 km
Sa, 19.09. 2:00 70% 35 km
Ortszeit Niederschlagsmenge Niederschlagsart
Sa, 19.09. 2:00 0.0 l/m2 in 6 Std. -
Fr, 18.09. 20:00 0.0 l/m2 in 12 Std. -
Fr, 18.09. 14:00 0.0 l/m2 in 6 Std. -
Fr, 18.09. 8:00 0.0 l/m2 in 12 Std. -
Fr, 18.09. 2:00 0.0 l/m2 in 6 Std. -
Do, 17.09. 20:00 0.0 l/m2 in 12 Std. -
Do, 17.09. 14:00 0.0 l/m2 in 6 Std. -
Do, 17.09. 8:00 0.1 l/m2 in 12 Std. -
Ortszeit Niederschlagsmenge Niederschlagsart
Sa, 19.09. 7:00 0.0 l/m2 in 1 Std. -
Sa, 19.09. 6:00 0.0 l/m2 in 1 Std. -
Sa, 19.09. 5:00 0.0 l/m2 in 1 Std. -
Sa, 19.09. 4:00 0.0 l/m2 in 1 Std. -
Sa, 19.09. 3:00 0.0 l/m2 in 1 Std. -
Sa, 19.09. 2:00 0.0 l/m2 in 1 Std. -
Ortszeit Stärke Spitze Richtung
km/h Bft. km/h Grad Sektor
Sa, 19.09. 2:00 7 2 - uml. uml.
Fr, 18.09. 20:00 11 2 - 60° NO
Fr, 18.09. 14:00 11 2 - 80° O
Fr, 18.09. 8:00 4 1 - uml. uml.
Fr, 18.09. 2:00 7 2 - 30° NO
Do, 17.09. 20:00 11 2 - 20° N
Do, 17.09. 14:00 11 2 - 60° NO
Do, 17.09. 8:00 11 2 - 350° N
Ortszeit Stärke Spitze Richtung
km/h Bft. km/h Grad Sektor
Sa, 19.09. 7:00 7 2 - - -
Sa, 19.09. 6:00 4 1 - - -
Sa, 19.09. 5:00 7 2 - - -
Sa, 19.09. 4:00 7 2 - 50° NO
Sa, 19.09. 3:00 4 1 - 340° N
Sa, 19.09. 2:00 7 2 - uml. uml.
Ortszeit Untergrenze Bedeckung Gattung
total tief tief mittel hoch
Sa, 19.09. 2:00 - - - - - -
Fr, 18.09. 20:00 9000 m 1/8 0/8 - - Ci
Fr, 18.09. 14:00 9000 m 1/8 0/8 - - Ci
Fr, 18.09. 8:00 9000 m 1/8 0/8 - - Ci
Fr, 18.09. 2:00 - - - - - -
Do, 17.09. 20:00 - 0/8 0/8 - - -
Do, 17.09. 14:00 3000 m 1/8 1/8 - Ac -
Do, 17.09. 8:00 570 m 8/8 8/8 Sc - -
Ortszeit Bedeckungsgrad in Achtel und Wolkenuntergrenze
Sa, 19.09. 7:00 7(9000m)
Sa, 19.09. 6:00 3(9000m)
Sa, 19.09. 5:00 6(9000m)
Sa, 19.09. 4:00 6(10500m)
Sa, 19.09. 3:00 -
Sa, 19.09. 2:00 -
Ortszeit Luftdruck NN (hPa) Tendenz (hPa in 3 Std.)
Sa, 19.09. 2:00 1026 - 0,9
Fr, 18.09. 20:00 1026 - 0,3
Fr, 18.09. 14:00 1026 - 1,1
Fr, 18.09. 8:00 1029 + 0,4
Fr, 18.09. 2:00 1029 - 0,3
Do, 17.09. 20:00 1027 + 1,4
Do, 17.09. 14:00 1025 + 0,2
Do, 17.09. 8:00 1024 + 2,1
Ortszeit Luftdruck NN (hPa) Tendenz (hPa in 3 Std.)
Sa, 19.09. 7:00 1024 - 0,9
Sa, 19.09. 6:00 1024 - 1,3
Sa, 19.09. 5:00 1025 - 1,5
Sa, 19.09. 4:00 1025 - 1,3
Sa, 19.09. 3:00 1026 - 1,1
Sa, 19.09. 2:00 1026 - 0,9
Ortszeit Schneehöhe (cm)
Sa, 19.09. 2:00 -
Fr, 18.09. 20:00 -
Fr, 18.09. 14:00 -
Fr, 18.09. 8:00 -
Fr, 18.09. 2:00 -
Do, 17.09. 20:00 -
Do, 17.09. 14:00 -
Do, 17.09. 8:00 -
Ortszeit Schneehöhe (cm)
Sa, 19.09. 7:00 -
Sa, 19.09. 6:00 -
Sa, 19.09. 5:00 -
Sa, 19.09. 4:00 -
Sa, 19.09. 3:00 -
Sa, 19.09. 2:00 -
Link zu dieser Seite / Seite empfehlen

Das Wetter in ...